Trinidad, Cuba
Current Conditions -  °F | °C
As of 5:51 AM on Friday 28 Nov 2014 (Local Time) from MUSC Reporting Station
Few Clouds Few Clouds  
Wind Chill: 61°   Ceiling: Unl
Heat Index: 61°   Visibility: 5mi
Dew Point: 57°   Wind: 2mph
Humidity: 88%   Direction: NA
Pressure: 30.12"   Gusts: NA
Location:  21.8°N, 79.98°W
Report Text: MUSC 280951Z VRB02KT 8000 FEW025 16/14 Q1020
Loading
Personal Weather Stations






























Interactive Weather Map New forecast layout! Learn more

10-Day Weather Forecast

Advertisements
Track Severe Weather on mobile